Time;durP1;ratioP1;P1;durP2;ratioP2;P2;SDS_P1;SDS_P2;PMS_P1;PMS_P2;Temp;Humidity;BMP_temperature;BMP_pressure;BME280_temperature;BME280_humidity;BME280_pressure;Samples;Min_cycle;Max_cycle;Signal;HPM_P1;HPM_P2
2024/02/07 00:01:16;;;;;;;8.20;3.28;;;11.40;99.90;;;;;;4139686;28;20038;-62
2024/02/07 00:03:17;;;;;;;11.35;3.78;;;11.40;99.90;;;;;;4139221;28;20442;-62
2024/02/07 00:05:17;;;;;;;11.55;3.55;;;11.40;99.90;;;;;;4140276;28;20057;-62
2024/02/07 00:07:18;;;;;;;17.02;3.88;;;11.40;99.90;;;;;;4144936;28;20117;-62
2024/02/07 00:09:18;;;;;;;11.15;3.50;;;11.30;99.90;;;;;;4140970;28;20888;-62
2024/02/07 00:11:19;;;;;;;13.73;3.47;;;11.30;99.90;;;;;;4142026;28;20128;-62
2024/02/07 00:13:20;;;;;;;15.30;3.83;;;11.40;99.90;;;;;;4143081;28;20382;-62
2024/02/07 00:15:20;;;;;;;11.18;3.97;;;11.30;99.90;;;;;;4142191;28;20052;-62
2024/02/07 00:17:21;;;;;;;13.55;3.78;;;11.30;99.90;;;;;;4142543;28;20034;-69
2024/02/07 00:19:22;;;;;;;10.38;3.70;;;11.30;99.90;;;;;;4142319;28;20038;-70
2024/02/07 00:21:22;;;;;;;13.13;3.90;;;11.30;99.90;;;;;;4141809;28;20105;-71
2024/02/07 00:23:23;;;;;;;12.52;3.92;;;11.30;99.90;;;;;;4142976;28;20478;-71
2024/02/07 00:25:24;;;;;;;11.00;3.40;;;11.20;99.90;;;;;;4141819;28;20066;-71
2024/02/07 00:27:24;;;;;;;11.38;4.07;;;11.30;99.90;;;;;;4142556;28;20057;-69
2024/02/07 00:29:25;;;;;;;12.85;3.85;;;11.20;99.90;;;;;;4141369;28;20493;-68
2024/02/07 00:31:26;;;;;;;13.52;4.00;;;11.30;99.90;;;;;;4141518;28;20042;-68
2024/02/07 00:33:26;;;;;;;10.77;3.60;;;11.30;99.90;;;;;;4141215;28;20038;-68
2024/02/07 00:35:27;;;;;;;7.80;3.40;;;11.30;99.90;;;;;;4140147;28;20046;-69
2024/02/07 00:37:27;;;;;;;9.80;4.15;;;11.30;99.90;;;;;;4141082;28;20383;-69
2024/02/07 00:39:28;;;;;;;10.15;3.70;;;11.20;99.90;;;;;;4137488;28;20525;-68
2024/02/07 00:41:28;;;;;;;8.70;3.58;;;11.20;99.90;;;;;;4136464;28;20049;-68
2024/02/07 00:43:32;;;;;;;11.15;4.10;;;11.20;99.90;;;;;;4146358;28;20040;-69
2024/02/07 00:45:34;;;;;;;13.05;4.68;;;11.20;99.90;;;;;;4144683;28;20046;-68
2024/02/07 00:47:35;;;;;;;9.40;4.20;;;11.20;99.90;;;;;;4143772;28;20048;-68
2024/02/07 00:49:35;;;;;;;11.52;4.20;;;11.20;99.90;;;;;;4143457;28;20038;-68
2024/02/07 00:51:36;;;;;;;10.82;4.10;;;11.20;99.90;;;;;;4144583;28;20053;-68
2024/02/07 00:53:37;;;;;;;6.38;3.35;;;11.20;99.90;;;;;;4146020;28;20116;-68
2024/02/07 00:55:37;;;;;;;8.93;3.78;;;11.20;99.90;;;;;;4144793;28;20100;-68
2024/02/07 00:57:39;;;;;;;13.30;4.05;;;11.30;99.90;;;;;;4145716;28;20041;-69
2024/02/07 00:59:39;;;;;;;12.57;3.72;;;11.20;99.90;;;;;;4143150;28;20045;-68
2024/02/07 01:01:40;;;;;;;10.45;3.65;;;11.20;99.90;;;;;;4144572;28;20128;-69
2024/02/07 01:03:42;;;;;;;9.68;3.65;;;11.20;99.90;;;;;;4143790;28;20037;-69
2024/02/07 01:05:42;;;;;;;5.95;3.30;;;11.20;99.90;;;;;;4144469;28;20056;-69
2024/02/07 01:07:43;;;;;;;10.00;3.13;;;11.20;99.90;;;;;;4145167;28;20062;-69
2024/02/07 01:09:44;;;;;;;10.63;3.30;;;11.20;99.90;;;;;;4143166;28;20042;-69
2024/02/07 01:11:44;;;;;;;10.45;3.58;;;11.20;99.90;;;;;;4144691;28;20034;-69
2024/02/07 01:13:47;;;;;;;11.00;4.07;;;11.20;99.90;;;;;;4145738;28;20068;-69
2024/02/07 01:15:47;;;;;;;10.65;4.25;;;11.20;99.90;;;;;;4145038;28;20443;-69
2024/02/07 01:17:48;;;;;;;9.63;3.88;;;11.20;99.90;;;;;;4144802;28;20044;-68
2024/02/07 01:19:51;;;;;;;11.38;3.40;;;11.20;99.90;;;;;;4145222;28;20495;-69
2024/02/07 01:21:51;;;;;;;11.70;3.15;;;11.20;99.90;;;;;;4144683;28;20038;-69
2024/02/07 01:23:52;;;;;;;11.35;3.33;;;11.20;99.90;;;;;;4145617;28;20068;-69
2024/02/07 01:25:52;;;;;;;6.43;3.40;;;11.20;99.90;;;;;;4146353;28;20410;-71
2024/02/07 01:27:54;;;;;;;10.35;3.58;;;11.20;99.90;;;;;;4146894;28;20129;-70
2024/02/07 01:29:56;;;;;;;7.82;2.80;;;11.20;99.90;;;;;;4144550;28;20117;-69
2024/02/07 01:31:56;;;;;;;11.60;2.92;;;11.20;99.90;;;;;;4144045;28;20394;-69
2024/02/07 01:33:58;;;;;;;5.70;2.67;;;11.20;99.90;;;;;;4145151;28;20046;-70
2024/02/07 01:35:58;;;;;;;13.02;3.53;;;11.20;99.90;;;;;;4143019;28;20038;-69
2024/02/07 01:38:07;;;;;;;8.50;2.95;;;11.30;99.90;;;;;;4144940;28;20030;-68
2024/02/07 01:40:10;;;;;;;6.25;2.70;;;11.30;99.90;;;;;;4144298;28;20092;-68
2024/02/07 01:42:11;;;;;;;9.20;2.47;;;11.20;99.90;;;;;;4141951;28;20033;-68
2024/02/07 01:44:12;;;;;;;10.63;2.58;;;11.20;99.90;;;;;;4144956;28;20553;-68
2024/02/07 01:46:14;;;;;;;7.97;2.40;;;11.20;99.90;;;;;;4144740;28;20242;-68
2024/02/07 01:48:15;;;;;;;7.25;2.92;;;11.20;99.90;;;;;;4143346;28;20553;-68
2024/02/07 01:50:15;;;;;;;4.93;2.38;;;11.30;99.90;;;;;;4143299;28;20030;-68
2024/02/07 01:52:19;;;;;;;6.95;2.70;;;11.20;99.90;;;;;;4141129;28;20048;-68
2024/02/07 01:54:19;;;;;;;9.65;3.05;;;11.20;99.90;;;;;;4144529;28;20046;-68
2024/02/07 01:56:20;;;;;;;5.32;2.88;;;11.20;99.90;;;;;;4141182;28;20140;-68
2024/02/07 01:58:21;;;;;;;6.82;2.63;;;11.30;99.90;;;;;;4141034;28;20026;-68
2024/02/07 02:00:23;;;;;;;4.75;2.40;;;11.20;99.90;;;;;;4140323;28;20450;-68
2024/02/07 02:02:25;;;;;;;11.87;2.93;;;11.30;99.90;;;;;;4140147;28;20316;-69
2024/02/07 02:04:26;;;;;;;7.93;2.40;;;11.20;99.90;;;;;;4140255;28;20045;-68
2024/02/07 02:06:27;;;;;;;6.63;2.38;;;11.30;99.90;;;;;;4140205;28;20096;-69
2024/02/07 02:08:28;;;;;;;9.65;2.88;;;11.30;99.90;;;;;;4142759;28;20080;-69
2024/02/07 02:10:29;;;;;;;9.57;2.47;;;11.20;99.90;;;;;;4142294;28;20072;-68
2024/02/07 02:12:30;;;;;;;6.15;2.70;;;11.30;99.90;;;;;;4144627;28;20037;-68
2024/02/07 02:14:32;;;;;;;6.88;2.72;;;11.20;99.90;;;;;;4144136;28;20041;-68
2024/02/07 02:16:32;;;;;;;6.82;2.90;;;11.20;99.90;;;;;;4142232;28;20514;-69
2024/02/07 02:18:33;;;;;;;6.53;2.75;;;11.20;99.90;;;;;;4142333;28;20038;-68
2024/02/07 02:20:36;;;;;;;6.97;2.83;;;11.20;99.90;;;;;;4141829;28;20044;-68
2024/02/07 02:22:40;;;;;;;10.45;2.97;;;11.20;99.90;;;;;;4143231;28;20042;-68
2024/02/07 02:25:05;;;;;;;3.30;2.20;;;11.20;99.90;;;;;;4145081;28;20392;-68
2024/02/07 02:27:24;;;;;;;7.53;2.60;;;11.20;99.90;;;;;;4140892;28;20048;-68
2024/02/07 02:29:36;;;;;;;5.53;2.30;;;11.20;99.90;;;;;;4142746;28;20033;-69
2024/02/07 02:31:37;;;;;;;8.55;2.65;;;11.30;99.90;;;;;;4143337;28;20033;-69
2024/02/07 02:33:39;;;;;;;8.30;2.75;;;11.20;99.90;;;;;;4144298;28;20127;-68
2024/02/07 02:35:40;;;;;;;4.63;2.42;;;11.30;99.90;;;;;;4142324;28;20420;-68
2024/02/07 02:37:41;;;;;;;6.18;2.25;;;11.30;99.90;;;;;;4143006;28;20228;-69
2024/02/07 02:39:43;;;;;;;6.18;2.60;;;11.30;99.90;;;;;;4143373;28;20466;-69
2024/02/07 02:41:43;;;;;;;8.48;2.90;;;11.30;99.90;;;;;;4142901;28;20351;-69
2024/02/07 02:43:44;;;;;;;8.68;2.90;;;11.30;99.90;;;;;;4144178;28;20092;-68
2024/02/07 02:45:45;;;;;;;8.48;3.17;;;11.30;99.90;;;;;;4142774;28;20508;-69
2024/02/07 02:47:45;;;;;;;5.63;2.22;;;11.20;99.90;;;;;;4142148;28;20034;-68
2024/02/07 02:49:46;;;;;;;9.18;3.03;;;11.20;99.90;;;;;;4143539;28;20045;-68
2024/02/07 02:51:48;;;;;;;6.68;2.80;;;11.20;99.90;;;;;;4143207;28;20471;-68
2024/02/07 02:53:49;;;;;;;6.10;2.58;;;11.20;99.90;;;;;;4144742;28;20034;-68
2024/02/07 02:55:49;;;;;;;3.42;1.50;;;11.20;99.90;;;;;;4141449;28;20052;-68
2024/02/07 02:57:50;;;;;;;1.52;0.70;;;11.10;99.90;;;;;;4142518;28;20069;-68
2024/02/07 02:59:51;;;;;;;2.83;0.88;;;10.40;99.90;;;;;;4144014;28;20057;-68
2024/02/07 03:01:51;;;;;;;6.40;1.35;;;10.30;99.90;;;;;;4146781;28;20065;-68
2024/02/07 03:03:55;;;;;;;2.95;0.98;;;10.10;99.90;;;;;;4144241;28;20056;-68
2024/02/07 03:05:58;;;;;;;3.83;1.23;;;10.00;99.90;;;;;;4141611;28;20054;-68
2024/02/07 03:10:26;;;;;;;1.35;0.50;;;9.50;99.90;;;;;;4112801;28;20037;-68
2024/02/07 03:12:26;;;;;;;1.48;0.63;;;9.30;99.90;;;;;;4144366;28;20042;-68
2024/02/07 03:14:27;;;;;;;2.67;0.60;;;9.20;99.90;;;;;;4142027;28;20509;-68
2024/02/07 03:16:28;;;;;;;2.50;0.88;;;9.20;99.90;;;;;;4142592;28;20050;-69
2024/02/07 03:18:29;;;;;;;1.48;0.63;;;9.10;99.90;;;;;;4142888;28;20034;-68
2024/02/07 03:20:30;;;;;;;2.35;0.93;;;9.00;99.90;;;;;;4142236;28;20394;-68
2024/02/07 03:22:30;;;;;;;2.58;0.90;;;8.90;99.90;;;;;;4143888;28;20038;-68
2024/02/07 03:24:31;;;;;;;3.08;1.00;;;8.90;99.90;;;;;;4143381;28;20042;-68
2024/02/07 03:26:31;;;;;;;1.27;0.68;;;8.80;99.90;;;;;;4143002;28;20040;-68
2024/02/07 03:28:32;;;;;;;2.80;0.70;;;8.80;99.90;;;;;;4143246;28;20081;-68
2024/02/07 03:30:33;;;;;;;4.80;1.10;;;8.70;99.90;;;;;;4142460;28;20049;-68
2024/02/07 03:32:35;;;;;;;1.75;0.70;;;8.60;99.90;;;;;;4143931;28;20033;-68
2024/02/07 03:34:36;;;;;;;5.15;1.48;;;8.50;99.90;;;;;;4143744;28;20026;-69
2024/02/07 03:36:37;;;;;;;3.27;0.80;;;8.40;99.90;;;;;;4142769;28;20088;-69
2024/02/07 03:38:38;;;;;;;3.15;0.80;;;8.30;99.90;;;;;;4146064;28;20276;-68
2024/02/07 03:40:38;;;;;;;6.03;1.30;;;8.20;99.90;;;;;;4142035;28;20133;-68
2024/02/07 03:42:43;;;;;;;4.85;1.55;;;8.20;99.90;;;;;;4141237;28;20037;-68
2024/02/07 03:44:56;;;;;;;3.13;1.02;;;8.10;99.90;;;;;;4143382;28;20084;-68
2024/02/07 03:46:57;;;;;;;4.13;1.02;;;8.00;99.90;;;;;;4141898;28;20042;-70
2024/02/07 03:48:59;;;;;;;4.00;1.27;;;8.00;99.90;;;;;;4143027;28;20558;-68
2024/02/07 03:50:59;;;;;;;2.97;0.73;;;8.00;99.90;;;;;;4140586;28;20038;-68
2024/02/07 03:53:03;;;;;;;5.82;1.02;;;8.00;99.90;;;;;;4143111;28;20131;-69
2024/02/07 03:55:10;;;;;;;4.38;1.02;;;7.90;99.90;;;;;;4141427;28;20125;-68
2024/02/07 03:57:11;;;;;;;5.25;1.23;;;7.90;99.90;;;;;;4143221;28;20045;-71
2024/02/07 03:59:11;;;;;;;3.65;1.10;;;7.80;99.90;;;;;;4142367;28;20405;-68
2024/02/07 04:01:15;;;;;;;3.92;0.75;;;7.80;99.90;;;;;;4142692;28;20038;-68
2024/02/07 04:03:18;;;;;;;3.47;1.08;;;7.80;99.90;;;;;;4143192;28;20033;-68
2024/02/07 04:05:19;;;;;;;4.20;1.10;;;7.80;99.90;;;;;;4139993;28;20049;-68
2024/02/07 04:07:25;;;;;;;2.33;0.70;;;7.90;99.90;;;;;;4143021;28;20424;-68
2024/02/07 04:09:26;;;;;;;1.70;0.43;;;7.80;99.90;;;;;;4141712;28;20041;-68
2024/02/07 05:15:58;;;;;;;6.72;1.13;;;7.50;99.90;;;;;;4138556;28;20038;-69
2024/02/07 05:17:58;;;;;;;4.50;0.90;;;7.40;99.90;;;;;;4140652;28;20454;-70
2024/02/07 05:19:59;;;;;;;5.32;1.35;;;7.40;99.90;;;;;;4141455;28;20046;-69
2024/02/07 05:22:00;;;;;;;1.80;0.60;;;7.30;99.90;;;;;;4138302;28;20042;-69
2024/02/07 05:24:01;;;;;;;3.92;0.65;;;7.30;99.90;;;;;;4140804;28;20104;-69
2024/02/07 05:26:01;;;;;;;1.77;0.80;;;7.20;99.90;;;;;;4137553;28;20058;-69
2024/02/07 05:28:02;;;;;;;2.85;0.90;;;7.20;99.90;;;;;;4141809;28;20453;-69
2024/02/07 05:30:03;;;;;;;3.25;0.68;;;7.20;99.90;;;;;;4140561;28;20050;-69
2024/02/07 05:32:05;;;;;;;2.83;0.63;;;7.10;99.90;;;;;;4139839;28;20180;-69
2024/02/07 05:34:06;;;;;;;2.75;0.80;;;7.10;99.90;;;;;;4144753;28;20395;-69
2024/02/07 05:36:08;;;;;;;3.30;0.60;;;7.10;99.90;;;;;;4141428;28;20065;-69
2024/02/07 05:38:10;;;;;;;3.53;0.60;;;7.00;99.90;;;;;;4142754;28;20040;-69
2024/02/07 05:40:11;;;;;;;3.53;0.75;;;7.10;99.90;;;;;;4142045;28;20352;-69
2024/02/07 05:42:11;;;;;;;4.10;0.90;;;7.00;99.90;;;;;;4143318;28;20092;-69
2024/02/07 05:44:12;;;;;;;5.20;1.13;;;7.00;99.90;;;;;;4144842;28;20042;-69
2024/02/07 05:46:13;;;;;;;6.40;1.58;;;7.00;99.90;;;;;;4144536;28;20050;-69
2024/02/07 05:48:13;;;;;;;4.28;0.70;;;7.00;99.90;;;;;;4144269;28;20062;-69
2024/02/07 05:50:15;;;;;;;1.05;0.50;;;7.00;99.90;;;;;;4142736;28;20030;-69
2024/02/07 05:52:15;;;;;;;1.85;0.60;;;7.00;99.90;;;;;;4145785;28;20037;-69
2024/02/07 05:54:16;;;;;;;2.63;0.75;;;7.00;99.90;;;;;;4145214;28;20116;-69
2024/02/07 05:56:16;;;;;;;3.55;0.88;;;7.00;99.90;;;;;;4143759;28;20112;-69
2024/02/07 05:58:17;;;;;;;2.83;0.70;;;7.00;99.90;;;;;;4143166;28;20502;-69
2024/02/07 06:00:18;;;;;;;2.28;0.70;;;7.00;99.90;;;;;;4144749;28;20045;-69
2024/02/07 06:02:18;;;;;;;3.33;0.88;;;7.00;99.90;;;;;;4142241;28;20034;-68
2024/02/07 06:04:19;;;;;;;5.15;0.80;;;7.00;99.90;;;;;;4138370;28;20085;-68
2024/02/07 06:06:22;;;;;;;2.67;0.95;;;7.00;99.90;;;;;;4134924;28;20536;-69
2024/02/07 06:08:23;;;;;;;3.22;0.75;;;7.10;99.90;;;;;;4137650;28;20457;-63
2024/02/07 06:10:23;;;;;;;1.83;0.60;;;7.00;99.90;;;;;;4135362;28;20045;-63
2024/02/07 06:12:24;;;;;;;1.88;0.68;;;7.00;99.90;;;;;;4145509;28;20398;-63
2024/02/07 06:14:25;;;;;;;1.95;0.75;;;7.00;99.90;;;;;;4145288;28;20041;-63
2024/02/07 06:16:26;;;;;;;1.85;0.65;;;6.90;99.90;;;;;;4143960;28;20038;-63
2024/02/07 06:18:26;;;;;;;1.48;0.68;;;6.80;99.90;;;;;;4144524;28;20525;-64
2024/02/07 06:20:28;;;;;;;1.95;0.50;;;6.80;99.90;;;;;;4141788;28;20057;-63
2024/02/07 06:22:29;;;;;;;1.53;0.57;;;6.80;99.90;;;;;;4140272;28;20502;-63
2024/02/07 06:24:29;;;;;;;3.08;0.63;;;6.70;99.90;;;;;;4144699;28;20134;-63
2024/02/07 06:26:30;;;;;;;3.42;0.68;;;6.70;99.90;;;;;;4143767;28;20129;-63
2024/02/07 06:28:30;;;;;;;2.65;0.52;;;6.70;99.90;;;;;;4141850;28;20121;-63
2024/02/07 06:30:31;;;;;;;1.58;0.80;;;6.60;99.90;;;;;;4142548;28;20145;-63
2024/02/07 06:32:32;;;;;;;2.13;0.88;;;6.60;99.90;;;;;;4144468;28;20042;-63
2024/02/07 06:34:32;;;;;;;2.20;0.77;;;6.50;99.90;;;;;;4142496;28;20034;-63
2024/02/07 06:36:33;;;;;;;2.25;0.60;;;6.50;99.90;;;;;;4141680;28;20516;-63
2024/02/07 06:38:33;;;;;;;3.28;1.00;;;6.50;99.90;;;;;;4143497;28;20548;-63
2024/02/07 06:40:34;;;;;;;4.18;0.88;;;6.50;99.90;;;;;;4142449;28;20034;-63
2024/02/07 06:42:35;;;;;;;4.75;0.77;;;6.40;99.90;;;;;;4143939;28;20030;-63
2024/02/07 06:44:35;;;;;;;2.63;1.00;;;6.40;99.90;;;;;;4142353;28;20029;-62
2024/02/07 06:46:42;;;;;;;4.32;0.98;;;6.40;99.90;;;;;;4143819;28;20052;-63
2024/02/07 06:48:43;;;;;;;2.63;1.08;;;6.40;99.90;;;;;;4143617;28;20524;-62
2024/02/07 06:50:43;;;;;;;5.85;1.60;;;6.40;99.90;;;;;;4142135;28;20034;-63
2024/02/07 06:52:44;;;;;;;4.28;1.40;;;6.30;99.90;;;;;;4143837;28;20542;-63
2024/02/07 06:54:45;;;;;;;6.53;1.42;;;6.30;99.90;;;;;;4142005;28;20038;-63
2024/02/07 06:56:46;;;;;;;3.03;1.17;;;6.30;99.90;;;;;;4137019;28;20037;-63
2024/02/07 06:58:47;;;;;;;5.28;1.45;;;6.30;99.90;;;;;;4140721;28;20129;-63
2024/02/07 07:00:47;;;;;;;4.43;1.27;;;6.30;99.90;;;;;;4142679;28;20516;-63
2024/02/07 07:02:48;;;;;;;3.53;1.30;;;6.40;99.90;;;;;;4144023;28;20041;-62
2024/02/07 07:04:49;;;;;;;4.72;1.55;;;6.40;99.90;;;;;;4143859;28;20058;-63
2024/02/07 07:06:50;;;;;;;4.32;1.38;;;6.40;99.90;;;;;;4143462;28;20046;-63
2024/02/07 07:08:51;;;;;;;5.45;1.35;;;6.50;99.90;;;;;;4143024;28;20030;-63
2024/02/07 07:10:51;;;;;;;4.38;1.27;;;6.50;99.90;;;;;;4140447;28;20505;-62
2024/02/07 07:12:52;;;;;;;2.50;0.80;;;6.60;99.90;;;;;;4143382;28;20034;-63
2024/02/07 07:14:53;;;;;;;3.25;1.17;;;6.60;99.90;;;;;;4143356;28;20037;-63
2024/02/07 07:16:53;;;;;;;4.60;1.17;;;6.70;99.90;;;;;;4142589;28;20533;-66
2024/02/07 07:18:56;;;;;;;3.63;1.20;;;6.70;99.90;;;;;;4145221;28;20038;-75
2024/02/07 07:20:57;;;;;;;;;;;6.70;99.90;;;;;;4142764;28;20044;-75
2024/02/07 07:22:57;;;;;;;2.67;1.33;;;6.80;99.90;;;;;;4144964;28;19910;-73
2024/02/07 07:24:58;;;;;;;5.25;1.70;;;6.80;99.90;;;;;;4143367;28;20092;-70
2024/02/07 07:26:59;;;;;;;5.05;1.60;;;6.80;99.90;;;;;;4143953;28;20053;-68
2024/02/07 07:28:59;;;;;;;6.43;2.08;;;6.90;99.90;;;;;;4141219;28;20431;-68
2024/02/07 07:31:00;;;;;;;2.75;1.30;;;6.90;99.90;;;;;;4142170;28;20112;-68
2024/02/07 07:33:02;;;;;;;5.05;1.45;;;6.90;99.90;;;;;;4143122;28;20519;-67
2024/02/07 07:35:03;;;;;;;5.68;1.40;;;6.90;99.90;;;;;;4143366;28;20053;-67
2024/02/07 07:37:03;;;;;;;2.92;1.58;;;6.90;99.90;;;;;;4141107;28;20046;-67
2024/02/07 07:39:04;;;;;;;5.50;1.70;;;7.00;99.90;;;;;;4139954;28;20042;-67
2024/02/07 07:41:05;;;;;;;1.92;1.23;;;7.00;99.90;;;;;;4137484;28;20502;-67
2024/02/07 07:43:05;;;;;;;2.33;1.05;;;7.00;99.90;;;;;;4140393;28;20123;-67
2024/02/07 07:45:06;;;;;;;2.97;1.10;;;7.00;99.90;;;;;;4142020;28;20034;-67
2024/02/07 07:47:07;;;;;;;5.40;1.70;;;7.00;99.90;;;;;;4141245;28;20041;-67
2024/02/07 07:49:07;;;;;;;3.90;1.40;;;7.10;99.90;;;;;;4139516;28;20045;-67
2024/02/07 07:51:08;;;;;;;2.97;1.48;;;7.10;99.90;;;;;;4142900;28;20124;-67
2024/02/07 07:53:09;;;;;;;2.70;1.20;;;7.10;99.90;;;;;;4141955;28;20038;-67
2024/02/07 07:55:09;;;;;;;2.67;1.15;;;7.10;99.90;;;;;;4141274;28;20344;-68
2024/02/07 07:57:10;;;;;;;2.15;1.25;;;7.20;99.90;;;;;;4143951;28;20053;-67
2024/02/07 07:59:12;;;;;;;2.42;1.00;;;7.10;99.90;;;;;;4139772;28;20096;-68
2024/02/07 08:01:19;;;;;;;2.17;1.15;;;7.10;99.90;;;;;;4124213;28;20475;-68
2024/02/07 08:03:20;;;;;;;4.13;1.30;;;7.10;99.90;;;;;;4143216;28;20049;-67
2024/02/07 08:05:20;;;;;;;3.88;1.30;;;7.20;99.90;;;;;;4141072;28;20037;-67
2024/02/07 08:07:21;;;;;;;4.60;1.65;;;7.10;99.90;;;;;;4141741;28;20034;-68
2024/02/07 08:09:21;;;;;;;2.38;1.17;;;7.10;99.90;;;;;;4141593;28;20034;-68
2024/02/07 08:11:22;;;;;;;5.65;1.52;;;7.10;99.90;;;;;;4142058;28;20038;-68
2024/02/07 08:13:23;;;;;;;4.88;1.38;;;7.10;99.90;;;;;;4141800;28;20033;-68
2024/02/07 08:15:23;;;;;;;3.72;2.15;;;7.20;99.90;;;;;;4141047;28;20034;-68
2024/02/07 08:17:24;;;;;;;4.60;2.08;;;7.10;99.90;;;;;;4143561;28;20026;-68
2024/02/07 08:19:24;;;;;;;4.25;1.95;;;7.10;99.90;;;;;;4145996;28;20453;-68
2024/02/07 08:21:25;;;;;;;3.67;1.63;;;7.10;99.90;;;;;;4144456;28;20034;-68
2024/02/07 08:23:26;;;;;;;3.88;1.67;;;7.10;99.90;;;;;;4150512;28;20045;-68
2024/02/07 08:25:26;;;;;;;4.43;1.70;;;7.10;99.90;;;;;;4144397;28;20509;-68
2024/02/07 08:27:27;;;;;;;3.28;1.60;;;7.10;99.90;;;;;;4143057;28;20033;-71
2024/02/07 08:29:29;;;;;;;2.67;1.30;;;7.10;99.90;;;;;;4139769;28;20398;-64
2024/02/07 08:31:29;;;;;;;2.92;1.30;;;7.10;99.90;;;;;;4147740;28;20466;-66
2024/02/07 08:33:30;;;;;;;3.15;1.25;;;7.20;99.90;;;;;;4149176;28;20124;-65
2024/02/07 08:35:31;;;;;;;1.92;1.00;;;7.20;99.90;;;;;;4146469;28;20440;-65
2024/02/07 08:37:31;;;;;;;2.00;1.00;;;7.20;99.90;;;;;;4144155;28;20177;-62
2024/02/07 08:39:32;;;;;;;2.75;1.20;;;7.20;99.90;;;;;;4143091;28;20385;-61
2024/02/07 08:41:33;;;;;;;2.67;0.95;;;7.20;99.90;;;;;;4138787;28;20529;-61
2024/02/07 08:43:34;;;;;;;4.18;1.40;;;7.20;99.90;;;;;;4140826;28;20165;-62
2024/02/07 08:45:35;;;;;;;3.42;1.15;;;7.20;99.90;;;;;;4138284;28;20438;-61
2024/02/07 08:47:37;;;;;;;2.57;1.40;;;7.20;99.90;;;;;;4142232;28;20034;-62
2024/02/07 08:49:37;;;;;;;3.00;1.20;;;7.20;99.90;;;;;;4140970;28;20395;-62
2024/02/07 08:51:38;;;;;;;4.63;1.50;;;7.20;99.90;;;;;;4142041;28;20049;-62
2024/02/07 08:53:40;;;;;;;3.25;1.42;;;7.20;99.90;;;;;;4145794;28;20057;-61
2024/02/07 08:55:40;;;;;;;1.90;1.20;;;7.20;99.90;;;;;;4142969;28;20044;-61
2024/02/07 08:57:41;;;;;;;2.35;1.17;;;7.20;99.90;;;;;;4142192;28;20471;-62
2024/02/07 08:59:44;;;;;;;3.25;1.17;;;7.20;99.90;;;;;;4144619;28;20482;-61
2024/02/07 09:01:45;;;;;;;1.30;0.90;;;7.30;99.90;;;;;;4148710;28;20037;-61
2024/02/07 09:03:46;;;;;;;2.63;1.00;;;7.30;99.90;;;;;;4142101;28;20034;-61
2024/02/07 09:05:46;;;;;;;1.52;1.10;;;7.30;99.90;;;;;;4150629;28;20467;-61
2024/02/07 09:07:48;;;;;;;7.07;1.15;;;7.30;99.90;;;;;;4148680;28;20030;-61
2024/02/07 09:09:48;;;;;;;3.15;0.80;;;7.30;99.90;;;;;;4148278;28;20037;-61
2024/02/07 09:11:49;;;;;;;3.90;1.30;;;7.30;99.90;;;;;;4150698;28;20397;-61
2024/02/07 09:13:49;;;;;;;2.05;1.15;;;7.30;99.90;;;;;;4149165;28;20034;-61
2024/02/07 09:15:50;;;;;;;2.85;1.00;;;7.30;99.90;;;;;;4149040;28;20119;-61
2024/02/07 09:17:51;;;;;;;2.92;1.00;;;7.30;99.90;;;;;;4142706;28;20504;-61
2024/02/07 09:19:52;;;;;;;3.53;0.90;;;7.30;99.90;;;;;;4122360;28;20038;-61
2024/02/07 09:21:53;;;;;;;2.55;1.00;;;7.30;99.90;;;;;;4143068;28;20034;-61
2024/02/07 09:23:56;;;;;;;1.50;0.85;;;7.30;99.90;;;;;;4147705;28;20151;-61
2024/02/07 09:25:56;;;;;;;1.20;0.68;;;7.30;99.90;;;;;;4143652;28;20057;-61
2024/02/07 09:27:57;;;;;;;3.63;1.00;;;7.30;99.90;;;;;;4145538;28;20100;-61
2024/02/07 09:29:58;;;;;;;1.60;0.68;;;7.30;99.90;;;;;;4147179;28;20045;-61
2024/02/07 09:31:59;;;;;;;3.55;0.90;;;7.30;99.90;;;;;;4146288;28;20069;-61
2024/02/07 09:33:59;;;;;;;2.78;0.73;;;7.30;99.90;;;;;;4144528;28;20112;-64
2024/02/07 09:36:01;;;;;;;3.00;1.33;;;7.30;99.90;;;;;;4143911;28;20033;-62
2024/02/07 09:38:01;;;;;;;1.90;0.90;;;7.30;99.90;;;;;;4144324;28;20474;-72
2024/02/07 09:40:03;;;;;;;3.50;0.93;;;7.20;99.90;;;;;;4148659;28;20091;-72
2024/02/07 09:42:07;;;;;;;3.15;0.95;;;7.20;99.90;;;;;;4145722;28;20066;-72
2024/02/07 09:44:11;;;;;;;1.80;0.90;;;7.20;99.90;;;;;;4145870;28;20050;-72
2024/02/07 09:46:14;;;;;;;4.35;1.20;;;7.30;99.90;;;;;;4146578;28;20038;-72
2024/02/07 09:48:21;;;;;;;1.88;1.10;;;7.30;99.90;;;;;;4145529;28;20481;-70
2024/02/07 09:50:22;;;;;;;3.33;1.00;;;7.30;99.90;;;;;;4149673;28;20030;-70
2024/02/07 09:52:24;;;;;;;4.22;1.20;;;7.30;99.90;;;;;;4149423;28;20041;-71
2024/02/07 09:54:25;;;;;;;;;;;7.40;99.90;;;;;;4141456;28;20136;-71
2024/02/07 09:56:26;;;;;;;1.80;0.88;;;7.40;99.90;;;;;;4143664;28;20548;-71
2024/02/07 09:58:29;;;;;;;4.07;1.23;;;7.30;99.90;;;;;;4144582;28;20041;-71
2024/02/07 10:00:29;;;;;;;3.13;1.17;;;7.40;99.90;;;;;;4142104;28;20030;-69
2024/02/07 10:02:36;;;;;;;3.60;1.00;;;7.40;99.90;;;;;;4144293;28;20401;-70
2024/02/07 10:04:42;;;;;;;3.47;1.30;;;7.40;99.90;;;;;;4145600;28;20046;-71
2024/02/07 10:06:43;;;;;;;4.55;1.17;;;7.40;99.90;;;;;;4146519;28;20554;-71
2024/02/07 10:08:48;;;;;;;2.08;1.08;;;7.40;99.90;;;;;;4145842;28;20085;-70
2024/02/07 10:10:49;;;;;;;2.95;1.45;;;7.40;99.90;;;;;;4148266;28;20469;-70
2024/02/07 10:12:54;;;;;;;5.68;1.65;;;7.40;99.90;;;;;;4143145;28;20079;-70
2024/02/07 10:14:55;;;;;;;5.70;2.10;;;7.40;99.90;;;;;;4143548;28;20034;-72
2024/02/07 10:16:56;;;;;;;5.03;1.08;;;7.40;99.90;;;;;;4142185;28;20524;-71
2024/02/07 10:18:56;;;;;;;2.97;1.20;;;7.40;99.90;;;;;;4143067;28;20041;-71
2024/02/07 10:21:01;;;;;;;2.58;1.50;;;7.40;99.90;;;;;;4141189;28;20037;-71
2024/02/07 10:23:06;;;;;;;4.47;1.40;;;7.40;99.90;;;;;;4135472;28;20034;-70
2024/02/07 10:25:12;;;;;;;3.75;1.48;;;7.40;99.90;;;;;;4135503;28;20042;-71
2024/02/07 10:27:20;;;;;;;4.47;1.77;;;7.40;99.90;;;;;;4143642;28;20160;-71
2024/02/07 10:29:22;;;;;;;3.85;1.48;;;7.40;99.90;;;;;;4141557;28;20466;-70
2024/02/07 10:31:23;;;;;;;3.40;1.75;;;7.40;99.90;;;;;;4142272;28;20030;-71
2024/02/07 10:33:24;;;;;;;3.42;1.75;;;7.40;99.90;;;;;;4143398;28;20065;-70
2024/02/07 10:35:25;;;;;;;3.95;1.65;;;7.40;99.90;;;;;;4142686;28;20064;-71
2024/02/07 10:37:26;;;;;;;3.17;1.90;;;7.40;99.90;;;;;;4142741;28;20057;-70
2024/02/07 10:39:27;;;;;;;4.95;1.70;;;7.40;99.90;;;;;;4142715;28;20113;-70
2024/02/07 10:41:28;;;;;;;2.43;1.37;;;7.40;99.90;;;;;;4138387;28;20477;-70
2024/02/07 10:43:33;;;;;;;5.55;1.60;;;7.40;99.90;;;;;;4143519;28;20034;-70
2024/02/07 10:45:34;;;;;;;4.35;1.65;;;7.50;99.90;;;;;;4139485;28;20068;-70
2024/02/07 10:47:35;;;;;;;5.30;2.05;;;7.40;99.90;;;;;;4143282;28;20048;-66
2024/02/07 10:49:36;;;;;;;3.17;1.75;;;7.50;99.90;;;;;;4142393;28;20125;-67
2024/02/07 10:51:39;;;;;;;4.95;1.80;;;7.50;99.90;;;;;;4142624;28;20033;-67
2024/02/07 10:53:40;;;;;;;5.05;2.30;;;7.50;99.90;;;;;;4142721;28;20034;-66
2024/02/07 10:55:41;;;;;;;2.70;1.92;;;7.50;99.90;;;;;;4140813;28;20490;-67
2024/02/07 10:57:48;;;;;;;4.13;2.08;;;7.50;99.90;;;;;;4141240;28;20045;-61
2024/02/07 10:59:50;;;;;;;5.03;2.00;;;7.50;99.90;;;;;;4142457;28;20038;-61
2024/02/07 11:01:51;;;;;;;5.40;1.92;;;7.50;99.90;;;;;;4141619;28;20490;-61
2024/02/07 11:03:52;;;;;;;3.00;1.60;;;7.50;99.90;;;;;;4142370;28;20482;-61
2024/02/07 11:05:52;;;;;;;3.63;1.70;;;7.60;99.90;;;;;;4141959;28;20057;-61
2024/02/07 11:07:53;;;;;;;2.45;1.60;;;7.60;99.90;;;;;;4142322;28;20044;-61
2024/02/07 11:09:54;;;;;;;3.95;2.08;;;7.60;99.90;;;;;;4140559;28;20060;-61
2024/02/07 11:11:56;;;;;;;4.15;2.42;;;7.60;99.90;;;;;;4139227;28;20042;-61
2024/02/07 11:13:58;;;;;;;2.40;1.77;;;7.60;99.90;;;;;;4141393;28;20046;-61
2024/02/07 11:15:59;;;;;;;5.97;2.50;;;7.60;99.90;;;;;;4138552;28;20048;-61
2024/02/07 11:18:00;;;;;;;4.57;1.90;;;7.60;99.90;;;;;;4137682;28;20037;-60
2024/02/07 11:20:01;;;;;;;2.60;1.85;;;7.60;99.90;;;;;;4140156;28;20236;-61
2024/02/07 11:22:05;;;;;;;4.63;2.00;;;7.70;99.90;;;;;;4141530;28;20046;-61
2024/02/07 11:24:07;;;;;;;5.88;2.28;;;7.70;99.90;;;;;;4142607;28;20494;-61
2024/02/07 11:26:09;;;;;;;5.72;2.10;;;7.70;99.90;;;;;;4140625;28;20038;-61
2024/02/07 11:28:10;;;;;;;5.88;2.03;;;7.70;99.90;;;;;;4140942;28;20034;-61
2024/02/07 11:30:11;;;;;;;5.80;2.05;;;7.70;99.90;;;;;;4140786;28;20061;-62
2024/02/07 11:32:13;;;;;;;5.85;2.50;;;7.70;99.90;;;;;;4143239;28;20045;-61
2024/02/07 11:34:15;;;;;;;3.13;1.77;;;7.70;99.90;;;;;;4142815;28;20037;-61
2024/02/07 11:36:16;;;;;;;4.30;2.00;;;7.70;99.90;;;;;;4142611;28;20548;-61
2024/02/07 11:38:18;;;;;;;5.50;2.23;;;7.80;99.90;;;;;;4143191;28;20092;-61
2024/02/07 11:40:23;;;;;;;7.75;2.53;;;7.80;99.90;;;;;;4141859;28;20042;-61
2024/02/07 11:42:24;;;;;;;6.10;2.70;;;7.90;99.90;;;;;;4143766;28;20034;-61
2024/02/07 11:44:28;;;;;;;8.20;2.72;;;7.80;99.90;;;;;;4143373;28;20389;-61